McGrath, Alaska
Current Conditions -  °F | °C
As of 6:53 PM on Wednesday 22 Oct 2014 (Local Time) from PAMC Reporting Station
Overcast Overcast  
Wind Chill: 23°   Ceiling: 4200
Heat Index: 31°   Visibility: 10mi
Dew Point: 22°   Wind: 9mph
Humidity: 69%   Direction: 350°N
Pressure: 29.72"   Gusts: NA
Location:  62.96°N, 155.6°W
Report Text: PAMC 230253Z AUTO 35008KT 10SM OVC042 M01/M06 A2972 RMK SLP072 T10061056 53008 TSNO VIA AUTODIAL
Loading
Personal Weather Stations






























Interactive Weather Map New forecast layout! Learn more

10-Day Weather Forecast

Advertisements
Track Severe Weather on mobile